Evelyn Maersk — OXHV2 — position and weather

sailwx.info

Track history (hours):
 
Tides and Currents Weather Stations Pressure Air Temp Water Temp Dewpoint Dewpoint Depression Visibility Wind Speed Wind Dir Waves Ship Positions

Evelyn Maersk

Last reported at 2014-Sep-30 12:21 UTC. Time now 2014-Sep-30 14:01 UTC.
Position N 36°21' E 014°29'.

Length 398 m; draft 14.4 m.

Type: Cargo ship. MMSI: 220496000.

Date/timePositionNaut miles runAvg speedWind from/ knotsBaromVisibWave heightAir tempDewpointWater temp
2014-Sep-30 12:21N 36°21' E 014°29'1518.2
2014-Sep-30 11:32N 36°26' E 014°12'1818.1
2014-Sep-30 10:33N 36°31' E 013°51'28916.7
2014-Sep-29 17:16N 37°17' E 007°55'6917.2
2014-Sep-29 13:14N 37°22' E 006°28'13417.4
2014-Sep-29 05:33N 37°06' E 003°41'43618.0
2014-Sep-28 05:16N 35°59' W 005°15'  
2014-Sep-25 21:12N 36°14' W 007°48'1514.8
2014-Sep-25 20:09N 36°18' W 008°06'914.7
2014-Sep-25 19:33N 36°21' W 008°16'1514.9
2014-Sep-25 18:33N 36°25' W 008°34'1414.3
2014-Sep-25 17:33N 36°29' W 008°51'1414.1
2014-Sep-25 16:33N 36°33' W 009°08'1413.6
2014-Sep-25 15:33N 36°40' W 009°22'1614.3
2014-Sep-25 14:28N 36°53' W 009°34'1415.2
2014-Sep-25 13:33N 37°06' W 009°37'1515.2
2014-Sep-25 12:33N 37°21' W 009°41'1515.0
2014-Sep-25 11:33N 37°36' W 009°46'1515.0
2014-Sep-25 10:32N 37°50' W 009°51'1414.7
2014-Sep-25 09:33N 38°04' W 009°55'1515.0
2014-Sep-25 08:33N 38°19' W 009°60'1714.8
2014-Sep-25 07:25N 38°35' W 010°05'64714.4
2014-Sep-23 10:33N 48°55' W 005°46'19616.1
2014-Sep-22 22:21N 50°19' W 001°13'1214.7
2014-Sep-22 21:33N 50°22' W 000°55'1313.2
2014-Sep-22 20:33N 50°26' W 000°35'1313.1
2014-Sep-22 19:33N 50°30' W 000°16'1413.6
2014-Sep-22 18:33N 50°33' E 000°05'1514.7
2014-Sep-22 17:33N 50°37' E 000°27'1616.2
2014-Sep-22 16:33N 50°45' E 000°50'1716.8
2014-Sep-22 15:33N 50°55' E 001°11'1616.0
2014-Sep-22 14:33N 51°05' E 001°30'1414.4
2014-Sep-22 13:33N 51°15' E 001°47'1413.9
2014-Sep-22 12:34N 51°27' E 001°58'1413.8
2014-Sep-22 11:33N 51°37' E 002°13'1514.5
2014-Sep-22 10:33N 51°48' E 002°30'3614.4
2014-Sep-22 08:05N 52°03' E 003°22'814.9
2014-Sep-22 07:33N 52°03' E 003°34'1212.4
2014-Sep-22 06:33N 52°02' E 003°54'8 7.8
2014-Sep-22 05:33N 51°58' E 004°05'2 1.4
2014-Sep-22 04:28N 51°57' E 004°02'0 0.0
2014-Sep-22 03:31N 51°57' E 004°02'0 0.0
2014-Sep-22 02:31N 51°57' E 004°02'0 0.0
2014-Sep-22 01:31N 51°57' E 004°02'0 0.0
2014-Sep-22 00:31N 51°57' E 004°02'0 0.0
2014-Sep-21 23:31N 51°57' E 004°02'0 0.0
2014-Sep-21 22:31N 51°57' E 004°02'0 0.0
2014-Sep-21 21:31N 51°57' E 004°02'0 0.0
2014-Sep-21 20:31N 51°57' E 004°02'0 0.0
2014-Sep-21 19:25N 51°57' E 004°02'0 0.0
2014-Sep-21 18:28N 51°57' E 004°02'0 0.0
2014-Sep-21 17:31N 51°57' E 004°02'0 0.0
2014-Sep-21 16:31N 51°57' E 004°02'0 0.0
2014-Sep-21 15:31N 51°57' E 004°02'0 0.0
2014-Sep-21 14:31N 51°57' E 004°02'0 0.0
2014-Sep-21 13:31N 51°57' E 004°02'0 0.0
2014-Sep-21 12:31N 51°57' E 004°02'0 0.0
2014-Sep-21 10:31N 51°57' E 004°02'0 0.0
2014-Sep-21 09:31N 51°57' E 004°02'0 0.0
2014-Sep-21 08:31N 51°57' E 004°02'0 0.0
2014-Sep-21 07:31N 51°57' E 004°02'0 0.0
2014-Sep-21 06:31N 51°57' E 004°02'0 0.0
2014-Sep-21 05:31N 51°57' E 004°02'0 0.0
2014-Sep-21 04:31N 51°57' E 004°02'0 0.0
2014-Sep-21 03:31N 51°57' E 004°02'0 0.0
2014-Sep-21 02:31N 51°57' E 004°02'0 0.0
2014-Sep-21 01:32N 51°57' E 004°02'1 1.2
2014-Sep-21 00:34N 51°58' E 004°04'7 6.7
2014-Sep-20 23:33N 52°01' E 003°54'6 6.3
2014-Sep-20 22:33N 52°04' E 003°45'8 7.9
2014-Sep-20 21:33N 52°11' E 003°46'9 8.5
2014-Sep-20 20:33N 52°20' E 003°48'9 8.9
2014-Sep-20 19:33N 52°29' E 003°50'9 8.9
2014-Sep-20 18:33N 52°37' E 003°52'9 9.2
2014-Sep-20 17:33N 52°46' E 003°56'1010.0
2014-Sep-20 16:33N 52°56' E 003°59'9 9.2
2014-Sep-20 15:33N 53°03' E 004°10'9 8.9
2014-Sep-20 14:33N 53°09' E 004°21'8 8.2
2014-Sep-20 13:33N 53°16' E 004°28'8 7.9
2014-Sep-20 12:33N 53°23' E 004°32'  
Track history (hours):
 
Tides and Currents Weather Stations Pressure Air Temp Water Temp Dewpoint Dewpoint Depression Visibility Wind Speed Wind Dir Waves Ship Positions

Evelyn Maersk

Last reported at 2014-Sep-30 12:21 UTC. Time now 2014-Sep-30 14:01 UTC.
Position N 36°21' E 014°29'.

Length 398 m; draft 14.4 m.

Type: Cargo ship. MMSI: 220496000.

Date/timePositionNaut miles runAvg speedWind from/ knotsBaromVisibWave heightAir tempDewpointWater temp
2014-Sep-30 12:21N 36°21' E 014°29'1518.2
2014-Sep-30 11:32N 36°26' E 014°12'1818.1
2014-Sep-30 10:33N 36°31' E 013°51'28916.7
2014-Sep-29 17:16N 37°17' E 007°55'6917.2
2014-Sep-29 13:14N 37°22' E 006°28'13417.4
2014-Sep-29 05:33N 37°06' E 003°41'43618.0
2014-Sep-28 05:16N 35°59' W 005°15'  
2014-Sep-25 21:12N 36°14' W 007°48'1514.8
2014-Sep-25 20:09N 36°18' W 008°06'914.7
2014-Sep-25 19:33N 36°21' W 008°16'1514.9
2014-Sep-25 18:33N 36°25' W 008°34'1414.3
2014-Sep-25 17:33N 36°29' W 008°51'1414.1
2014-Sep-25 16:33N 36°33' W 009°08'1413.6
2014-Sep-25 15:33N 36°40' W 009°22'1614.3
2014-Sep-25 14:28N 36°53' W 009°34'1415.2
2014-Sep-25 13:33N 37°06' W 009°37'1515.2
2014-Sep-25 12:33N 37°21' W 009°41'1515.0
2014-Sep-25 11:33N 37°36' W 009°46'1515.0
2014-Sep-25 10:32N 37°50' W 009°51'1414.7
2014-Sep-25 09:33N 38°04' W 009°55'1515.0
2014-Sep-25 08:33N 38°19' W 009°60'1714.8
2014-Sep-25 07:25N 38°35' W 010°05'64714.4
2014-Sep-23 10:33N 48°55' W 005°46'19616.1
2014-Sep-22 22:21N 50°19' W 001°13'1214.7
2014-Sep-22 21:33N 50°22' W 000°55'1313.2
2014-Sep-22 20:33N 50°26' W 000°35'1313.1
2014-Sep-22 19:33N 50°30' W 000°16'1413.6
2014-Sep-22 18:33N 50°33' E 000°05'1514.7
2014-Sep-22 17:33N 50°37' E 000°27'1616.2
2014-Sep-22 16:33N 50°45' E 000°50'1716.8
2014-Sep-22 15:33N 50°55' E 001°11'1616.0
2014-Sep-22 14:33N 51°05' E 001°30'1414.4
2014-Sep-22 13:33N 51°15' E 001°47'1413.9
2014-Sep-22 12:34N 51°27' E 001°58'1413.8
2014-Sep-22 11:33N 51°37' E 002°13'1514.5
2014-Sep-22 10:33N 51°48' E 002°30'3614.4
2014-Sep-22 08:05N 52°03' E 003°22'814.9
2014-Sep-22 07:33N 52°03' E 003°34'1212.4
2014-Sep-22 06:33N 52°02' E 003°54'8 7.8
2014-Sep-22 05:33N 51°58' E 004°05'2 1.4
2014-Sep-22 04:28N 51°57' E 004°02'0 0.0
2014-Sep-22 03:31N 51°57' E 004°02'0 0.0
2014-Sep-22 02:31N 51°57' E 004°02'0 0.0
2014-Sep-22 01:31N 51°57' E 004°02'0 0.0
2014-Sep-22 00:31N 51°57' E 004°02'0 0.0
2014-Sep-21 23:31N 51°57' E 004°02'0 0.0
2014-Sep-21 22:31N 51°57' E 004°02'0 0.0
2014-Sep-21 21:31N 51°57' E 004°02'0 0.0
2014-Sep-21 20:31N 51°57' E 004°02'0 0.0
2014-Sep-21 19:25N 51°57' E 004°02'0 0.0
2014-Sep-21 18:28N 51°57' E 004°02'0 0.0
2014-Sep-21 17:31N 51°57' E 004°02'0 0.0
2014-Sep-21 16:31N 51°57' E 004°02'0 0.0
2014-Sep-21 15:31N 51°57' E 004°02'0 0.0
2014-Sep-21 14:31N 51°57' E 004°02'0 0.0
2014-Sep-21 13:31N 51°57' E 004°02'0 0.0
2014-Sep-21 12:31N 51°57' E 004°02'0 0.0
2014-Sep-21 10:31N 51°57' E 004°02'0 0.0
2014-Sep-21 09:31N 51°57' E 004°02'0 0.0
2014-Sep-21 08:31N 51°57' E 004°02'0 0.0
2014-Sep-21 07:31N 51°57' E 004°02'0 0.0
2014-Sep-21 06:31N 51°57' E 004°02'0 0.0
2014-Sep-21 05:31N 51°57' E 004°02'0 0.0
2014-Sep-21 04:31N 51°57' E 004°02'0 0.0
2014-Sep-21 03:31N 51°57' E 004°02'0 0.0
2014-Sep-21 02:31N 51°57' E 004°02'0 0.0
2014-Sep-21 01:32N 51°57' E 004°02'1 1.2
2014-Sep-21 00:34N 51°58' E 004°04'7 6.7
2014-Sep-20 23:33N 52°01' E 003°54'6 6.3
2014-Sep-20 22:33N 52°04' E 003°45'8 7.9
2014-Sep-20 21:33N 52°11' E 003°46'9 8.5
2014-Sep-20 20:33N 52°20' E 003°48'9 8.9
2014-Sep-20 19:33N 52°29' E 003°50'9 8.9
2014-Sep-20 18:33N 52°37' E 003°52'9 9.2
2014-Sep-20 17:33N 52°46' E 003°56'1010.0
2014-Sep-20 16:33N 52°56' E 003°59'9 9.2
2014-Sep-20 15:33N 53°03' E 004°10'9 8.9
2014-Sep-20 14:33N 53°09' E 004°21'8 8.2
2014-Sep-20 13:33N 53°16' E 004°28'8 7.9
2014-Sep-20 12:33N 53°23' E 004°32'  

Dump ship's entire track history